MSC Bari — A8YD3 — position and weather

sailwx.info

Track history (hours):
 
Tides and Currents Weather Stations Pressure Air Temp Water Temp Dewpoint Dewpoint Depression Visibility Wind Speed Wind Dir Waves Ship Positions

MSC Bari

Last reported at 2015-Mar-25 23:14 UTC. Time now 2015-Mar-31 11:19 UTC.
Position N 01°16' E 103°45'.

Length 366 m; draft 13.9 m.

Type: Ship (hazmat cat A). MMSI: 636092188.

Date/timePositionNaut miles runAvg speedWind from/ knotsBaromVisibWave heightAir tempDewpointWater temp
2015-Mar-25 23:14N 01°16' E 103°45'0 0.2
2015-Mar-25 22:31N 01°17' E 103°45'0 0.0
2015-Mar-25 19:29N 01°17' E 103°45'0 0.0
2015-Mar-25 05:32N 01°17' E 103°45'0 0.0
2015-Mar-25 02:08N 01°17' E 103°45'0 0.0
2015-Mar-24 21:23N 01°17' E 103°45'0 0.0
2015-Mar-24 20:26N 01°17' E 103°45'0 0.1
2015-Mar-24 19:33N 01°16' E 103°45'1 1.4
2015-Mar-24 18:33N 01°15' E 103°46'6 6.0
2015-Mar-24 17:32N 01°13' E 103°52'4 4.5
2015-Mar-24 16:31N 01°14' E 103°56'  
2015-Mar-21 18:17N 21°59' E 114°30'1520.1
2015-Mar-21 17:33N 22°13' E 114°32'1817.2
2015-Mar-21 16:32N 22°30' E 114°25'7 0.7
2015-Mar-21 06:31N 22°34' E 114°19'16 1.0
2015-Mar-20 15:17N 22°22' E 114°30'1013.3
2015-Mar-20 14:34N 22°12' E 114°29'3416.9
2015-Mar-20 12:33N 21°49' E 114°03'2211.2
2015-Mar-20 10:33N 22°08' E 113°51'10 9.9
2015-Mar-20 09:33N 22°17' E 113°48'1111.1
2015-Mar-20 08:33N 22°28' E 113°53'0 0.2
2015-Mar-20 07:24N 22°28' E 113°53'0 0.0
2015-Mar-20 06:30N 22°28' E 113°53'0 0.0
2015-Mar-20 02:30N 22°28' E 113°53'0 0.1
2015-Mar-20 01:30N 22°28' E 113°53'1 0.9
2015-Mar-20 00:32N 22°28' E 113°52'1110.6
2015-Mar-19 23:31N 22°18' E 113°48'1110.3
2015-Mar-19 22:28N 22°08' E 113°51'1 0.4
2015-Mar-19 19:20N 22°07' E 113°51'1012.1
2015-Mar-19 18:33N 22°16' E 113°48'10 0.9
2015-Mar-19 06:32N 22°26' E 113°45'1313.2
2015-Mar-19 05:33N 22°13' E 113°49'37 7.1
2015-Mar-19 00:20N 21°52' E 114°22'23511.9
2015-Mar-18 04:29N 23°41' E 118°09'1415.1
2015-Mar-18 03:32N 23°52' E 118°19'1614.2
2015-Mar-18 02:23N 24°07' E 118°25'1113.0
2015-Mar-18 01:33N 24°14' E 118°16'1312.7
2015-Mar-18 00:32N 24°24' E 118°06'5 4.9
2015-Mar-17 23:33N 24°26' E 118°02'0 0.0
2015-Mar-17 22:29N 24°26' E 118°02'0 0.0
2015-Mar-17 21:29N 24°26' E 118°02'0 0.0
2015-Mar-17 20:05N 24°26' E 118°02'0 0.0
2015-Mar-17 17:19N 24°26' E 118°02'4 5.5
2015-Mar-17 16:33N 24°24' E 118°06'10 9.9
2015-Mar-17 15:33N 24°17' E 118°13'2 2.2
2015-Mar-17 14:31N 24°17' E 118°16'0 0.0
2015-Mar-17 13:26N 24°17' E 118°16'0 0.0
2015-Mar-17 12:31N 24°17' E 118°16'1 0.3
2015-Mar-17 08:32N 24°15' E 118°16'5 5.4
2015-Mar-17 07:32N 24°13' E 118°21'2 2.4
2015-Mar-17 06:31N 24°15' E 118°24'0 0.0
2015-Mar-17 04:23N 24°15' E 118°24'0 0.0
2015-Mar-17 02:11N 24°15' E 118°24'0 0.1
2015-Mar-17 01:18N 24°15' E 118°24'2 2.7
2015-Mar-17 00:32N 24°14' E 118°26'10 9.8
2015-Mar-16 23:33N 24°18' E 118°36'1312.9
2015-Mar-16 22:33N 24°24' E 118°48'1312.5
2015-Mar-16 21:29N 24°31' E 119°01'1212.8
2015-Mar-16 20:33N 24°37' E 119°12'  
Track history (hours):
 
Tides and Currents Weather Stations Pressure Air Temp Water Temp Dewpoint Dewpoint Depression Visibility Wind Speed Wind Dir Waves Ship Positions

MSC Bari

Last reported at 2015-Mar-25 23:14 UTC. Time now 2015-Mar-31 11:19 UTC.
Position N 01°16' E 103°45'.

Length 366 m; draft 13.9 m.

Type: Ship (hazmat cat A). MMSI: 636092188.

Date/timePositionNaut miles runAvg speedWind from/ knotsBaromVisibWave heightAir tempDewpointWater temp
2015-Mar-25 23:14N 01°16' E 103°45'0 0.2
2015-Mar-25 22:31N 01°17' E 103°45'0 0.0
2015-Mar-25 19:29N 01°17' E 103°45'0 0.0
2015-Mar-25 05:32N 01°17' E 103°45'0 0.0
2015-Mar-25 02:08N 01°17' E 103°45'0 0.0
2015-Mar-24 21:23N 01°17' E 103°45'0 0.0
2015-Mar-24 20:26N 01°17' E 103°45'0 0.1
2015-Mar-24 19:33N 01°16' E 103°45'1 1.4
2015-Mar-24 18:33N 01°15' E 103°46'6 6.0
2015-Mar-24 17:32N 01°13' E 103°52'4 4.5
2015-Mar-24 16:31N 01°14' E 103°56'  
2015-Mar-21 18:17N 21°59' E 114°30'1520.1
2015-Mar-21 17:33N 22°13' E 114°32'1817.2
2015-Mar-21 16:32N 22°30' E 114°25'7 0.7
2015-Mar-21 06:31N 22°34' E 114°19'16 1.0
2015-Mar-20 15:17N 22°22' E 114°30'1013.3
2015-Mar-20 14:34N 22°12' E 114°29'3416.9
2015-Mar-20 12:33N 21°49' E 114°03'2211.2
2015-Mar-20 10:33N 22°08' E 113°51'10 9.9
2015-Mar-20 09:33N 22°17' E 113°48'1111.1
2015-Mar-20 08:33N 22°28' E 113°53'0 0.2
2015-Mar-20 07:24N 22°28' E 113°53'0 0.0
2015-Mar-20 06:30N 22°28' E 113°53'0 0.0
2015-Mar-20 02:30N 22°28' E 113°53'0 0.1
2015-Mar-20 01:30N 22°28' E 113°53'1 0.9
2015-Mar-20 00:32N 22°28' E 113°52'1110.6
2015-Mar-19 23:31N 22°18' E 113°48'1110.3
2015-Mar-19 22:28N 22°08' E 113°51'1 0.4
2015-Mar-19 19:20N 22°07' E 113°51'1012.1
2015-Mar-19 18:33N 22°16' E 113°48'10 0.9
2015-Mar-19 06:32N 22°26' E 113°45'1313.2
2015-Mar-19 05:33N 22°13' E 113°49'37 7.1
2015-Mar-19 00:20N 21°52' E 114°22'23511.9
2015-Mar-18 04:29N 23°41' E 118°09'1415.1
2015-Mar-18 03:32N 23°52' E 118°19'1614.2
2015-Mar-18 02:23N 24°07' E 118°25'1113.0
2015-Mar-18 01:33N 24°14' E 118°16'1312.7
2015-Mar-18 00:32N 24°24' E 118°06'5 4.9
2015-Mar-17 23:33N 24°26' E 118°02'0 0.0
2015-Mar-17 22:29N 24°26' E 118°02'0 0.0
2015-Mar-17 21:29N 24°26' E 118°02'0 0.0
2015-Mar-17 20:05N 24°26' E 118°02'0 0.0
2015-Mar-17 17:19N 24°26' E 118°02'4 5.5
2015-Mar-17 16:33N 24°24' E 118°06'10 9.9
2015-Mar-17 15:33N 24°17' E 118°13'2 2.2
2015-Mar-17 14:31N 24°17' E 118°16'0 0.0
2015-Mar-17 13:26N 24°17' E 118°16'0 0.0
2015-Mar-17 12:31N 24°17' E 118°16'1 0.3
2015-Mar-17 08:32N 24°15' E 118°16'5 5.4
2015-Mar-17 07:32N 24°13' E 118°21'2 2.4
2015-Mar-17 06:31N 24°15' E 118°24'0 0.0
2015-Mar-17 04:23N 24°15' E 118°24'0 0.0
2015-Mar-17 02:11N 24°15' E 118°24'0 0.1
2015-Mar-17 01:18N 24°15' E 118°24'2 2.7
2015-Mar-17 00:32N 24°14' E 118°26'10 9.8
2015-Mar-16 23:33N 24°18' E 118°36'1312.9
2015-Mar-16 22:33N 24°24' E 118°48'1312.5
2015-Mar-16 21:29N 24°31' E 119°01'1212.8
2015-Mar-16 20:33N 24°37' E 119°12'  

Dump ship's entire track history